createdAt,value
2018-03-18T00:00:02.832Z,-2.89
2018-03-18T00:02:31.572Z,-2.77
2018-03-18T00:05:00.632Z,-2.68
2018-03-18T00:07:28.907Z,-2.66
2018-03-18T00:09:57.173Z,-2.59
2018-03-18T00:12:25.452Z,-2.78
2018-03-18T00:14:53.720Z,-2.90
2018-03-18T00:17:21.980Z,-2.86
2018-03-18T00:19:50.288Z,-2.69
2018-03-18T00:22:18.555Z,-2.90
2018-03-18T00:24:46.840Z,-2.78
2018-03-18T00:27:15.110Z,-2.64
2018-03-18T00:29:43.396Z,-2.79
2018-03-18T00:32:11.686Z,-2.75
2018-03-18T00:34:39.955Z,-2.72
2018-03-18T00:37:08.237Z,-2.55
2018-03-18T00:39:36.496Z,-2.69
2018-03-18T00:42:04.780Z,-2.90
2018-03-18T00:44:33.048Z,-2.83
2018-03-18T00:47:01.318Z,-2.81
2018-03-18T00:49:29.600Z,-2.67
2018-03-18T00:52:01.639Z,-2.70
2018-03-18T00:54:30.001Z,-2.76
2018-03-18T00:56:58.259Z,-2.84
2018-03-18T00:59:27.292Z,-2.65
2018-03-18T01:01:55.571Z,-2.45
2018-03-18T01:04:23.839Z,-2.53
2018-03-18T01:06:52.104Z,-2.64
2018-03-18T01:09:20.377Z,-2.70
2018-03-18T01:11:48.641Z,-2.41
2018-03-18T01:14:16.915Z,-2.39
2018-03-18T01:16:45.227Z,-2.60
2018-03-18T01:19:13.498Z,-2.68
2018-03-18T01:21:41.776Z,-2.75
2018-03-18T01:24:10.132Z,-2.83
2018-03-18T01:26:38.427Z,-2.78
2018-03-18T01:29:06.689Z,-2.67
2018-03-18T01:31:34.979Z,-2.57
2018-03-18T01:34:03.256Z,-2.58
2018-03-18T01:36:31.568Z,-2.96
2018-03-18T01:38:59.852Z,-2.62
2018-03-18T01:41:28.889Z,-2.73
2018-03-18T01:43:57.167Z,-2.96
2018-03-18T01:46:25.455Z,-2.72
2018-03-18T01:48:53.728Z,-2.85
2018-03-18T01:51:21.995Z,-2.74
2018-03-18T01:53:50.292Z,-2.70
2018-03-18T01:56:18.551Z,-2.74
2018-03-18T01:58:46.821Z,-2.92
2018-03-18T02:01:15.097Z,-2.95
2018-03-18T02:03:43.361Z,-2.87
2018-03-18T02:06:11.645Z,-2.57
2018-03-18T02:08:39.921Z,-2.62
2018-03-18T02:11:08.195Z,-2.69
2018-03-18T02:13:36.480Z,-2.96
2018-03-18T02:16:04.732Z,-2.81
2018-03-18T02:18:33.785Z,-2.90
2018-03-18T02:21:02.127Z,-3.10
2018-03-18T02:23:31.630Z,-2.86
2018-03-18T02:25:59.891Z,-2.90
2018-03-18T02:28:28.172Z,-2.89
2018-03-18T02:30:56.448Z,-3.09
2018-03-18T02:33:24.727Z,-2.85
2018-03-18T02:35:53.001Z,-2.85
2018-03-18T02:38:21.273Z,-3.02
2018-03-18T02:40:49.661Z,-2.92
2018-03-18T02:43:17.824Z,-2.67
2018-03-18T02:45:46.096Z,-2.80
2018-03-18T02:48:15.144Z,-2.63
2018-03-18T02:50:43.407Z,-2.87
2018-03-18T02:53:11.688Z,-2.82
2018-03-18T02:55:39.973Z,-2.77
2018-03-18T02:58:08.236Z,-2.80
2018-03-18T03:00:36.590Z,-2.81
2018-03-18T03:03:04.872Z,-2.72
2018-03-18T03:05:33.128Z,-2.85
2018-03-18T03:08:01.412Z,-2.91
2018-03-18T03:10:29.700Z,-2.95
2018-03-18T03:12:57.980Z,-2.83
2018-03-18T03:15:26.238Z,-2.95
2018-03-18T03:17:54.509Z,-3.00
2018-03-18T03:20:22.788Z,-2.82
2018-03-18T03:22:51.115Z,-2.85
2018-03-18T03:25:20.164Z,-2.87
2018-03-18T03:27:48.460Z,-2.79
2018-03-18T03:30:17.494Z,-2.77
2018-03-18T03:32:46.541Z,-3.02
2018-03-18T03:35:14.827Z,-2.87
2018-03-18T03:37:43.092Z,-2.77
2018-03-18T03:40:11.371Z,-2.95
2018-03-18T03:42:39.631Z,-3.07
2018-03-18T03:45:07.906Z,-3.08
2018-03-18T03:47:36.182Z,-2.96
2018-03-18T03:50:04.468Z,-3.18
2018-03-18T03:52:32.724Z,-2.96
2018-03-18T03:55:01.016Z,-2.88
2018-03-18T03:57:29.299Z,-2.70
2018-03-18T03:59:57.570Z,-2.91
2018-03-18T04:02:25.849Z,-2.92
2018-03-18T04:04:54.155Z,-2.98
2018-03-18T04:07:22.426Z,-2.80
2018-03-18T04:09:50.698Z,-2.79
2018-03-18T04:12:18.961Z,-2.81
2018-03-18T04:14:47.235Z,-2.95
2018-03-18T04:17:15.669Z,-3.04
2018-03-18T04:19:43.951Z,-2.82
2018-03-18T04:22:12.980Z,-2.76
2018-03-18T04:24:41.243Z,-3.00
2018-03-18T04:27:09.567Z,-3.09
2018-03-18T04:29:37.837Z,-3.14
2018-03-18T04:32:06.127Z,-3.20
2018-03-18T04:34:34.402Z,-3.40
2018-03-18T04:37:02.672Z,-3.23
2018-03-18T04:39:30.960Z,-3.25
2018-03-18T04:41:59.220Z,-3.09
2018-03-18T04:44:27.495Z,-3.15
2018-03-18T04:46:55.840Z,-3.14
2018-03-18T04:49:24.102Z,-3.17
2018-03-18T04:51:52.368Z,-3.28
2018-03-18T04:54:21.485Z,-3.27
2018-03-18T04:56:49.772Z,-3.20
2018-03-18T04:59:18.069Z,-3.20
2018-03-18T05:01:46.320Z,-3.20
2018-03-18T05:04:14.600Z,-3.22
2018-03-18T05:06:42.865Z,-3.34
2018-03-18T05:09:11.148Z,-3.42
2018-03-18T05:11:39.442Z,-3.28
2018-03-18T05:14:07.721Z,-3.39
2018-03-18T05:16:35.981Z,-3.41
2018-03-18T05:19:04.276Z,-3.44
2018-03-18T05:21:32.549Z,-3.49
2018-03-18T05:24:00.804Z,-3.38
2018-03-18T05:26:29.087Z,-3.40
2018-03-18T05:28:57.363Z,-3.40
2018-03-18T05:31:25.619Z,-3.25
2018-03-18T05:33:53.919Z,-3.61
2018-03-18T05:36:22.195Z,-3.63
2018-03-18T05:38:50.470Z,-3.57
2018-03-18T05:41:18.749Z,-3.58
2018-03-18T05:43:47.015Z,-3.55
2018-03-18T05:46:15.278Z,-3.68
2018-03-18T05:48:43.561Z,-3.55
2018-03-18T05:51:11.829Z,-3.63
2018-03-18T05:53:40.097Z,-3.57
2018-03-18T05:56:08.378Z,-3.51
2018-03-18T05:58:36.647Z,-3.69
2018-03-18T06:01:05.679Z,-3.47
2018-03-18T06:03:33.986Z,-3.48
2018-03-18T06:06:02.256Z,-3.61
2018-03-18T06:08:30.528Z,-3.61
2018-03-18T06:10:58.817Z,-3.52
2018-03-18T06:13:27.084Z,-3.51
2018-03-18T06:15:55.352Z,-3.43
2018-03-18T06:18:23.655Z,-3.52
2018-03-18T06:20:52.690Z,-3.41
2018-03-18T06:23:20.990Z,-3.35
2018-03-18T06:25:49.275Z,-3.46
2018-03-18T06:28:17.544Z,-3.24
2018-03-18T06:30:45.831Z,-3.15
2018-03-18T06:33:14.093Z,-3.22
2018-03-18T06:35:42.373Z,-3.19
2018-03-18T06:38:10.636Z,-3.18
2018-03-18T06:40:38.905Z,-3.00
2018-03-18T06:43:07.188Z,-3.13
2018-03-18T06:45:35.555Z,-3.06
2018-03-18T06:48:03.819Z,-3.44
2018-03-18T06:50:32.106Z,-3.27
2018-03-18T06:53:00.404Z,-3.47
2018-03-18T06:55:28.686Z,-3.53
2018-03-18T06:57:56.995Z,-3.65
2018-03-18T07:00:26.051Z,-3.43
2018-03-18T07:02:54.323Z,-3.31
2018-03-18T07:05:22.611Z,-3.34
2018-03-18T07:07:50.855Z,-3.27
2018-03-18T07:10:19.132Z,-3.13
2018-03-18T07:12:47.387Z,-3.32
2018-03-18T07:15:16.415Z,-3.18
2018-03-18T07:17:44.720Z,-3.08
2018-03-18T07:20:12.980Z,-2.79
2018-03-18T07:22:41.243Z,-3.17
2018-03-18T07:25:09.531Z,-3.32
2018-03-18T07:27:37.805Z,-3.31
2018-03-18T07:30:06.087Z,-3.22
2018-03-18T07:32:34.368Z,-3.13
2018-03-18T07:35:02.635Z,-3.44
2018-03-18T07:37:30.917Z,-3.42
2018-03-18T07:39:59.195Z,-3.37
2018-03-18T07:42:27.549Z,-3.49
2018-03-18T07:44:55.811Z,-3.61
2018-03-18T07:47:24.093Z,-3.49
2018-03-18T07:49:52.351Z,-3.48
2018-03-18T07:52:20.616Z,-3.36
2018-03-18T07:54:49.669Z,-3.17
2018-03-18T07:57:17.934Z,-3.26
2018-03-18T07:59:46.191Z,-3.20
2018-03-18T08:02:14.467Z,-3.24
2018-03-18T08:04:42.736Z,-3.19
2018-03-18T08:07:11.002Z,-2.85
2018-03-18T08:09:40.040Z,-2.72
2018-03-18T08:12:08.305Z,-2.78
2018-03-18T08:14:36.567Z,-2.50
2018-03-18T08:17:04.839Z,-2.24
2018-03-18T08:19:33.106Z,-2.40
2018-03-18T08:22:01.375Z,-2.62
2018-03-18T08:24:29.651Z,-2.83
2018-03-18T08:26:57.908Z,-2.50
2018-03-18T08:29:26.963Z,-2.29
2018-03-18T08:31:55.239Z,-2.60
2018-03-18T08:34:23.499Z,-2.43
2018-03-18T08:36:51.784Z,-2.11
2018-03-18T08:39:20.065Z,-1.83
2018-03-18T08:41:48.353Z,-1.86
2018-03-18T08:44:16.621Z,-1.53
2018-03-18T08:46:44.912Z,-1.47
2018-03-18T08:49:13.172Z,-1.57
2018-03-18T08:51:41.435Z,-1.54
2018-03-18T08:54:09.727Z,-1.40
2018-03-18T08:56:38.253Z,-1.42
2018-03-18T08:59:07.288Z,-1.34
2018-03-18T09:01:35.543Z,-1.57
2018-03-18T09:04:03.824Z,-2.10
2018-03-18T09:06:32.103Z,-1.87
2018-03-18T09:09:00.386Z,-1.48
2018-03-18T09:11:28.644Z,-1.26
2018-03-18T09:13:56.929Z,-1.15
2018-03-18T09:16:25.184Z,-1.32
2018-03-18T09:18:55.332Z,-1.08
2018-03-18T09:21:23.637Z,-0.99
2018-03-18T09:23:51.903Z,-1.12
2018-03-18T09:26:20.168Z,-1.10
2018-03-18T09:28:48.451Z,-1.24
2018-03-18T09:31:16.720Z,-0.91
2018-03-18T09:33:45.007Z,-1.13
2018-03-18T09:36:13.260Z,-1.14
2018-03-18T09:38:41.516Z,-1.20
2018-03-18T09:41:10.564Z,-1.03
2018-03-18T09:43:38.835Z,-1.00
2018-03-18T09:46:07.104Z,-1.30
2018-03-18T09:48:35.379Z,-1.24
2018-03-18T09:51:03.740Z,-0.89
2018-03-18T09:53:32.047Z,-1.07
2018-03-18T09:56:01.144Z,-1.12
2018-03-18T09:58:29.369Z,-1.15
2018-03-18T10:00:58.447Z,-0.92
2018-03-18T10:03:27.534Z,-0.71
2018-03-18T10:05:56.599Z,-0.88
2018-03-18T10:08:24.898Z,-0.54
2018-03-18T10:10:53.505Z,-0.34
2018-03-18T10:13:21.805Z,-0.51
2018-03-18T10:15:50.286Z,-0.20
2018-03-18T10:18:18.597Z,-0.26
2018-03-18T10:20:46.864Z,-0.24
2018-03-18T10:23:15.136Z,-0.26
2018-03-18T10:25:43.431Z,-0.21
2018-03-18T10:28:11.703Z,-0.04
2018-03-18T10:30:40.757Z,-0.08
2018-03-18T10:33:09.043Z,-0.30
2018-03-18T10:35:37.308Z,-0.29
2018-03-18T10:38:05.881Z,0.19
2018-03-18T10:40:34.235Z,0.18
2018-03-18T10:43:03.293Z,0.26
2018-03-18T10:45:31.654Z,0.80
2018-03-18T10:47:59.968Z,0.59
2018-03-18T10:50:28.223Z,0.63
2018-03-18T10:52:56.517Z,0.29
2018-03-18T10:55:24.829Z,0.65
2018-03-18T10:57:53.208Z,0.37
2018-03-18T11:00:22.485Z,0.44
2018-03-18T11:02:51.094Z,0.96
2018-03-18T11:05:19.491Z,0.99
2018-03-18T11:07:47.910Z,1.42
2018-03-18T11:10:17.077Z,1.18
2018-03-18T11:12:46.485Z,0.86
2018-03-18T11:15:16.527Z,1.39
2018-03-18T11:17:45.412Z,1.70
2018-03-18T11:20:16.076Z,1.56
2018-03-18T11:22:46.254Z,1.39
2018-03-18T11:25:15.993Z,1.34
2018-03-18T11:27:45.149Z,1.11
2018-03-18T11:30:16.366Z,1.06
2018-03-18T11:32:46.172Z,1.05
2018-03-18T11:35:16.203Z,1.41
2018-03-18T11:37:46.652Z,1.61
2018-03-18T11:40:17.453Z,1.65
2018-03-18T11:42:47.205Z,1.21
2018-03-18T11:45:17.093Z,1.02
2018-03-18T11:47:46.868Z,1.29
2018-03-18T11:50:17.017Z,1.62
2018-03-18T11:52:47.586Z,1.69
2018-03-18T11:55:18.448Z,2.08
2018-03-18T11:57:48.287Z,2.43
2018-03-18T12:00:18.077Z,2.45
2018-03-18T12:02:47.826Z,2.91
2018-03-18T12:05:18.587Z,2.88
2018-03-18T12:07:48.487Z,3.07
2018-03-18T12:10:19.063Z,3.18
2018-03-18T12:12:48.938Z,3.01
2018-03-18T12:15:18.945Z,2.71
2018-03-18T12:17:49.724Z,2.38
2018-03-18T12:20:19.907Z,2.30
2018-03-18T12:22:49.598Z,2.10
2018-03-18T12:25:20.289Z,1.85
2018-03-18T12:27:50.115Z,2.07
2018-03-18T12:30:20.767Z,2.40
2018-03-18T12:32:51.624Z,2.14
2018-03-18T12:35:21.554Z,2.80
2018-03-18T12:37:51.338Z,2.93
2018-03-18T12:40:34.778Z,3.87
2018-03-18T12:43:22.849Z,3.99
2018-03-18T12:45:52.708Z,3.96
2018-03-18T12:48:22.540Z,3.47
2018-03-18T12:50:53.390Z,3.29
2018-03-18T12:53:22.718Z,3.71
2018-03-18T12:55:52.123Z,3.22
2018-03-18T12:58:21.426Z,3.83
2018-03-18T13:00:50.704Z,4.15
2018-03-18T13:03:20.083Z,4.39
2018-03-18T13:05:49.362Z,4.68
2018-03-18T13:08:18.695Z,4.53
2018-03-18T13:10:47.986Z,4.49
2018-03-18T13:13:18.154Z,4.29
2018-03-18T13:15:47.717Z,4.16
2018-03-18T13:18:17.194Z,3.88
2018-03-18T13:20:47.356Z,3.68
2018-03-18T13:23:16.786Z,3.80
2018-03-18T13:25:46.117Z,3.58
2018-03-18T13:28:15.359Z,3.55
2018-03-18T13:30:44.787Z,2.99
2018-03-18T13:33:14.226Z,2.75
2018-03-18T13:35:43.580Z,2.80
2018-03-18T13:38:12.825Z,3.27
2018-03-18T13:40:43.244Z,2.79
2018-03-18T13:43:12.984Z,2.44
2018-03-18T13:45:43.228Z,2.90
2018-03-18T13:48:12.511Z,3.21
2018-03-18T13:50:42.698Z,3.68
2018-03-18T13:53:12.018Z,3.28
2018-03-18T13:55:42.194Z,4.03
2018-03-18T13:58:11.575Z,3.71
2018-03-18T14:00:41.006Z,3.67
2018-03-18T14:03:10.403Z,3.62
2018-03-18T14:05:40.144Z,3.83
2018-03-18T14:08:10.534Z,3.50
2018-03-18T14:10:40.766Z,3.12
2018-03-18T14:13:10.260Z,3.03
2018-03-18T14:15:39.532Z,3.00
2018-03-18T14:18:08.844Z,2.66
2018-03-18T14:20:38.308Z,2.53
2018-03-18T14:23:08.391Z,2.21
2018-03-18T14:25:37.751Z,1.93
2018-03-18T14:28:07.797Z,2.01
2018-03-18T14:30:37.223Z,2.41
2018-03-18T14:33:06.853Z,2.69
2018-03-18T14:35:37.027Z,3.11
2018-03-18T14:38:06.477Z,3.00
2018-03-18T14:40:36.597Z,2.85
2018-03-18T14:43:05.983Z,3.30
2018-03-18T14:45:35.378Z,2.79
2018-03-18T14:48:05.339Z,2.35
2018-03-18T14:50:35.455Z,2.00
2018-03-18T14:53:06.004Z,1.66
2018-03-18T14:55:35.691Z,1.83
2018-03-18T14:58:06.260Z,1.91
2018-03-18T15:00:35.648Z,1.96
2018-03-18T15:03:04.915Z,1.86
2018-03-18T15:05:35.131Z,1.90
2018-03-18T15:08:04.610Z,2.10
2018-03-18T15:10:34.842Z,2.35
2018-03-18T15:13:04.139Z,2.00
2018-03-18T15:15:33.678Z,1.69
2018-03-18T15:18:03.131Z,1.98
2018-03-18T15:20:32.491Z,2.47
2018-03-18T15:23:01.959Z,2.36
2018-03-18T15:25:31.370Z,2.51
2018-03-18T15:28:01.481Z,2.36
2018-03-18T15:30:30.892Z,2.22
2018-03-18T15:33:00.185Z,1.92
2018-03-18T15:35:29.569Z,1.70
2018-03-18T15:37:59.084Z,1.69
2018-03-18T15:40:28.509Z,2.09
2018-03-18T15:42:58.708Z,2.45
2018-03-18T15:45:28.058Z,2.89
2018-03-18T15:47:57.608Z,2.40
2018-03-18T15:50:26.857Z,2.40
2018-03-18T15:52:57.201Z,2.63
2018-03-18T15:55:26.659Z,2.20
2018-03-18T15:57:57.914Z,2.26
2018-03-18T16:00:28.579Z,2.10
2018-03-18T16:02:58.622Z,2.31
2018-03-18T16:05:28.135Z,2.08
2018-03-18T16:07:59.592Z,1.76
2018-03-18T16:10:29.007Z,1.55
2018-03-18T16:12:58.628Z,1.76
2018-03-18T16:15:27.878Z,1.75
2018-03-18T16:17:57.221Z,1.74
2018-03-18T16:20:27.250Z,1.31
2018-03-18T16:22:57.568Z,0.77
2018-03-18T16:25:27.795Z,0.73
2018-03-18T16:27:57.842Z,0.72
2018-03-18T16:30:44.897Z,0.73
2018-03-18T16:33:14.181Z,0.52
2018-03-18T16:35:45.225Z,0.50
2018-03-18T16:38:15.029Z,0.44
2018-03-18T16:40:45.274Z,0.51
2018-03-18T16:43:15.159Z,0.60
2018-03-18T16:45:45.225Z,0.63
2018-03-18T16:48:15.154Z,0.59
2018-03-18T16:50:45.930Z,0.41
2018-03-18T16:53:15.798Z,-0.06
2018-03-18T16:55:46.662Z,0.00
2018-03-18T16:58:16.551Z,-0.46
2018-03-18T17:00:46.509Z,-0.47
2018-03-18T17:03:16.442Z,-0.50
2018-03-18T17:05:46.367Z,-0.48
2018-03-18T17:08:17.728Z,-0.62
2018-03-18T17:10:48.444Z,-0.65
2018-03-18T17:13:18.439Z,-0.67
2018-03-18T17:15:48.442Z,-0.85
2018-03-18T17:18:18.155Z,-1.18
2018-03-18T17:20:48.184Z,-1.00
2018-03-18T17:23:18.062Z,-0.91
2018-03-18T17:25:48.705Z,-0.87
2018-03-18T17:28:18.469Z,-0.72
2018-03-18T17:30:48.834Z,-0.96
2018-03-18T17:33:18.873Z,-0.83
2018-03-18T17:35:48.994Z,-0.82
2018-03-18T17:38:18.927Z,-1.00
2018-03-18T17:40:48.887Z,-1.05
2018-03-18T17:43:18.890Z,-0.99
2018-03-18T17:46:06.281Z,-0.98
2018-03-18T17:48:54.070Z,-0.92
2018-03-18T17:51:41.341Z,-1.23
2018-03-18T17:54:29.273Z,-1.18
2018-03-18T17:56:59.467Z,-1.36
2018-03-18T17:59:29.481Z,-1.46
2018-03-18T18:01:59.327Z,-1.36
2018-03-18T18:04:30.384Z,-1.43
2018-03-18T18:07:00.355Z,-1.41
2018-03-18T18:09:31.327Z,-1.46
2018-03-18T18:12:01.558Z,-1.49
2018-03-18T18:14:31.655Z,-1.51
2018-03-18T18:17:01.578Z,-1.49
2018-03-18T18:19:31.656Z,-1.49
2018-03-18T18:22:01.555Z,-1.45
2018-03-18T18:24:32.510Z,-1.26
2018-03-18T18:27:02.371Z,-1.25
2018-03-18T18:29:32.420Z,-1.43
2018-03-18T18:32:03.765Z,-1.36
2018-03-18T18:34:35.585Z,-1.48
2018-03-18T18:37:05.573Z,-1.53
2018-03-18T18:39:35.683Z,-1.59
2018-03-18T18:42:06.412Z,-1.64
2018-03-18T18:44:37.351Z,-1.54
2018-03-18T18:47:08.410Z,-1.51
2018-03-18T18:49:38.428Z,-1.56
2018-03-18T18:52:08.548Z,-1.57
2018-03-18T18:54:39.351Z,-1.39
2018-03-18T18:57:09.061Z,-1.53
2018-03-18T18:59:39.832Z,-1.56
2018-03-18T19:02:10.134Z,-1.59
2018-03-18T19:04:40.466Z,-1.61
2018-03-18T19:07:10.517Z,-1.55
2018-03-18T19:09:40.502Z,-1.38
2018-03-18T19:12:10.648Z,-1.43
2018-03-18T19:14:41.307Z,-1.44
2018-03-18T19:17:12.016Z,-1.61
2018-03-18T19:19:42.002Z,-1.74
2018-03-18T19:22:12.497Z,-1.52
2018-03-18T19:24:43.764Z,-1.56
2018-03-18T19:27:14.628Z,-1.70
2018-03-18T19:29:45.419Z,-1.75
2018-03-18T19:32:16.072Z,-1.69
2018-03-18T19:34:46.190Z,-1.65
2018-03-18T19:37:16.654Z,-1.60
2018-03-18T19:39:46.498Z,-1.59
2018-03-18T19:42:17.692Z,-1.64
2018-03-18T19:44:47.618Z,-1.56
2018-03-18T19:47:17.697Z,-1.91
2018-03-18T19:49:49.274Z,-1.90
2018-03-18T19:52:19.199Z,-1.96
2018-03-18T19:54:49.071Z,-1.93
2018-03-18T19:57:18.888Z,-2.15
2018-03-18T19:59:49.671Z,-1.92
2018-03-18T20:02:20.501Z,-1.96
2018-03-18T20:04:54.807Z,-1.91
2018-03-18T20:07:24.714Z,-1.84
2018-03-18T20:09:55.661Z,-1.97
2018-03-18T20:12:25.528Z,-2.05
2018-03-18T20:14:56.627Z,-2.03
2018-03-18T20:17:27.099Z,-2.06
2018-03-18T20:19:58.283Z,-2.05
2018-03-18T20:22:29.015Z,-2.28
2018-03-18T20:24:58.567Z,-2.03
2018-03-18T20:27:27.979Z,-1.91
2018-03-18T20:29:57.921Z,-2.10
2018-03-18T20:32:28.160Z,-2.03
2018-03-18T20:34:58.952Z,-1.99
2018-03-18T20:37:29.699Z,-1.78
2018-03-18T20:40:01.070Z,-1.80
2018-03-18T20:42:30.900Z,-1.68
2018-03-18T20:45:00.385Z,-1.99
2018-03-18T20:47:29.750Z,-2.03
2018-03-18T20:49:59.245Z,-2.09
2018-03-18T20:52:28.543Z,-2.10
2018-03-18T20:54:57.897Z,-2.15
2018-03-18T20:57:27.379Z,-2.24
2018-03-18T20:59:57.650Z,-2.63
2018-03-18T21:02:27.052Z,-2.28
2018-03-18T21:04:58.311Z,-2.25
2018-03-18T21:07:28.112Z,-2.18
2018-03-18T21:09:57.448Z,-2.16
2018-03-18T21:12:26.938Z,-2.05
2018-03-18T21:14:56.571Z,-2.16
2018-03-18T21:17:26.023Z,-2.35
2018-03-18T21:19:55.534Z,-2.41
2018-03-18T21:22:26.368Z,-2.61
2018-03-18T21:24:55.707Z,-2.55
2018-03-18T21:27:25.093Z,-2.43
2018-03-18T21:29:54.650Z,-2.47
2018-03-18T21:32:24.118Z,-2.29
2018-03-18T21:34:53.595Z,-2.42
2018-03-18T21:37:23.982Z,-2.42
2018-03-18T21:39:53.398Z,-2.16
2018-03-18T21:42:23.707Z,-2.21
2018-03-18T21:44:53.110Z,-2.22
2018-03-18T21:47:23.379Z,-2.16
2018-03-18T21:49:52.794Z,-2.14
2018-03-18T21:52:23.159Z,-2.31
2018-03-18T21:54:52.474Z,-2.38
2018-03-18T21:57:21.806Z,-2.37
2018-03-18T21:59:51.211Z,-2.44
2018-03-18T22:02:20.950Z,-2.32
2018-03-18T22:04:51.127Z,-2.44
2018-03-18T22:07:20.474Z,-2.48
2018-03-18T22:09:50.626Z,-2.45
2018-03-18T22:12:19.818Z,-2.60
2018-03-18T22:14:50.004Z,-2.55
2018-03-18T22:17:20.132Z,-2.67
2018-03-18T22:19:50.318Z,-2.68
2018-03-18T22:22:19.577Z,-2.74
2018-03-18T22:24:48.900Z,-2.76
2018-03-18T22:27:18.242Z,-2.84
2018-03-18T22:29:47.374Z,-2.81
2018-03-18T22:32:17.376Z,-2.76
2018-03-18T22:34:46.575Z,-2.77
2018-03-18T22:37:16.420Z,-2.82
2018-03-18T22:39:44.917Z,-2.87
2018-03-18T22:42:14.040Z,-2.80
2018-03-18T22:44:43.154Z,-2.76
2018-03-18T22:47:11.461Z,-2.80
2018-03-18T22:49:39.747Z,-2.74
2018-03-18T22:52:08.050Z,-2.67
2018-03-18T22:54:36.325Z,-2.86
2018-03-18T22:57:04.634Z,-2.73
2018-03-18T22:59:32.915Z,-2.70
2018-03-18T23:02:01.184Z,-3.00
2018-03-18T23:04:29.480Z,-2.93
2018-03-18T23:06:57.764Z,-2.97
2018-03-18T23:09:26.058Z,-2.95
2018-03-18T23:11:54.336Z,-3.04
2018-03-18T23:14:22.623Z,-3.08
2018-03-18T23:16:50.888Z,-3.09
2018-03-18T23:19:19.174Z,-3.00
2018-03-18T23:21:47.439Z,-3.14
2018-03-18T23:24:15.719Z,-3.11
2018-03-18T23:26:44.000Z,-3.28
2018-03-18T23:29:12.265Z,-3.37
2018-03-18T23:31:40.528Z,-3.29
2018-03-18T23:34:08.820Z,-3.31
2018-03-18T23:36:37.096Z,-3.26
2018-03-18T23:39:05.398Z,-3.22
2018-03-18T23:41:33.685Z,-3.22
2018-03-18T23:44:02.725Z,-3.14
2018-03-18T23:46:30.994Z,-3.23
2018-03-18T23:48:59.274Z,-3.28
2018-03-18T23:51:27.572Z,-3.12
2018-03-18T23:53:55.835Z,-3.20
2018-03-18T23:56:24.116Z,-3.33
2018-03-18T23:58:52.372Z,-3.20
